createdAt,value
2024-01-05T00:01:27.732Z,99452.59
2024-01-05T00:03:54.431Z,99457.13
2024-01-05T00:06:21.207Z,99455.28
2024-01-05T00:08:47.811Z,99457.13
2024-01-05T00:11:20.884Z,99452.59
2024-01-05T00:13:47.739Z,99453.44
2024-01-05T00:16:21.045Z,99452.59
2024-01-05T00:18:48.010Z,99449.94
2024-01-05T00:21:20.928Z,99444.59
2024-01-05T00:23:47.957Z,99444.00
2024-01-05T00:26:14.708Z,99441.13
2024-01-05T00:28:41.336Z,99441.31
2024-01-05T00:31:09.680Z,99448.53
2024-01-05T00:33:36.332Z,99444.78
2024-01-05T00:36:03.830Z,99430.88
2024-01-05T00:38:30.410Z,99436.22
2024-01-05T00:40:56.899Z,99428.19
2024-01-05T00:43:23.471Z,99420.41
2024-01-05T00:45:50.015Z,99413.22
2024-01-05T00:48:16.949Z,99410.78
2024-01-05T00:50:43.631Z,99413.44
2024-01-05T00:53:10.152Z,99417.94
2024-01-05T00:55:36.663Z,99415.28
2024-01-05T00:58:03.248Z,99406.69
2024-01-05T01:00:29.940Z,99403.22
2024-01-05T01:02:56.534Z,99398.91
2024-01-05T01:05:23.460Z,99407.72
2024-01-05T01:07:50.044Z,99398.06
2024-01-05T01:10:16.537Z,99399.72
2024-01-05T01:12:43.129Z,99398.06
2024-01-05T01:15:09.828Z,99399.72
2024-01-05T01:17:37.201Z,99398.91
2024-01-05T01:20:04.529Z,99398.91
2024-01-05T23:28:13.171Z,99177.53
2024-01-05T23:30:39.831Z,99177.53
2024-01-05T23:33:06.621Z,99183.97
2024-01-05T23:35:33.218Z,99172.66
2024-01-05T23:37:59.720Z,99187.72
2024-01-05T23:40:26.237Z,99167.84
2024-01-05T23:42:52.876Z,99176.16
2024-01-05T23:45:19.687Z,99182.34
2024-01-05T23:47:46.229Z,99194.41
2024-01-05T23:50:12.820Z,99196.25
2024-01-05T23:52:39.393Z,99195.47
2024-01-05T23:55:05.976Z,99198.41
2024-01-05T23:57:32.571Z,99194.59
